Haines Airport
PAHN : now visible

Airfield :











YOU CAN JOIN US ON...

 
LOGIN :

Register | Disclaimer

   EN    FR    IT 

 









Legend :    VFR   Marginal VFR   IFR   Intensive IFR   Very Intensive IFR
Visi :
Ceiling :
>= 8 km
>= 3000ft
5 to 8 km
1000 to 3000 ft
1500m to 5 km
500 to 1000 ft
800 to 1500m
200 to 500 ft
< 800m
< 200 ft
Symbols :   Thunderstorms  Fog  Heavy snow  Heavy precipitations  Wind > 20 kt






- Airport Elevation : 15 ft
- IATA code : HNS


PAHN - Haines

CURRENT METAR :
  • 151828Z AUTO 29010KT 10SM SCT025 OVC034 M01/M03 A3000 RMK AO2 T10111028 TSNO

EXPIRED METARs :
  • 151754Z AUTO 29012KT 10SM BKN022 OVC030 M02/M03 A3001 RMK AO2 SLP163 60000 T10171033 11006 21017 55000 TSNO
  • 151731Z AUTO 29010KT 10SM BKN024 OVC034 M02/M03 A3001 RMK AO2 T10171028 TSNO
  • 151644Z AUTO 29010KT 6SM BR OVC028 M02/M03 A3000 RMK AO2 SNE24 P0000 T10171033 TSNO
  • 151554Z AUTO 30011KT 5SM -SN BR OVC033 M02/M03 A3000 RMK AO2 SNE24B42 SLP162 P0000 T10171033 TSNO

TAF PAHN
Valid from the 15 at 18:00 until the 16 at 18:00 UTC


151734Z 1518/1618 30008KT 6SM -SN BR SCT025 OVC035
TEMPO 1518/1522 3SM -SN BR BKN025
FM160300 30008KT P6SM VCSH SCT025 OVC050
FM161200 30008KT 2SM -SN BR OVC025
FM161500 30008KT 1SM -SN BR SCT008 OVC015 AMD LTD TO CLD VIS AND WIND



MET'MAP, your aeronautical weather chart ! - Copyright ORBIFLY December 2007 - Disclaimer

ORBIFLY MET'MAP TEAM :

Programming & Development : Alexandra Zaïnal
Concept & original design : Baudouin d'Aumeries
Assistance for programming : Marc-Olivier Méhu
Technical & hardware support : Manuel Goepfert

Contact : metmap@orbifly.com




SOURCES & CREDITS :

   NOAA       Earth
Advisory